createdAt,value
2022-10-08T00:01:17.668Z,9.95
2022-10-08T00:03:51.472Z,11.20
2022-10-08T00:06:38.799Z,12.07
2022-10-08T00:09:07.268Z,8.18
2022-10-08T00:11:38.923Z,7.30
2022-10-08T00:14:07.525Z,8.02
2022-10-08T00:16:37.806Z,5.57
2022-10-08T00:19:13.281Z,8.10
2022-10-08T00:21:43.837Z,11.27
2022-10-08T00:24:15.326Z,6.28
2022-10-08T00:26:44.076Z,9.65
2022-10-08T00:29:14.049Z,9.85
2022-10-08T00:31:44.336Z,9.00
2022-10-08T00:34:20.606Z,7.65
2022-10-08T00:36:51.643Z,5.43
2022-10-08T00:39:20.922Z,8.63
2022-10-08T00:41:51.517Z,7.63
2022-10-08T00:44:47.210Z,12.40
2022-10-08T00:47:24.615Z,6.78
2022-10-08T00:49:55.451Z,15.73
2022-10-08T00:52:25.093Z,5.75
2022-10-08T00:54:52.245Z,9.13
2022-10-08T00:57:21.762Z,3.40
2022-10-08T01:02:16.035Z,6.57
2022-10-08T01:04:44.129Z,6.88
2022-10-08T01:07:20.121Z,4.60
2022-10-08T01:09:50.121Z,6.93
2022-10-08T01:12:46.130Z,6.05
2022-10-08T01:15:13.337Z,6.72
2022-10-08T01:17:56.469Z,5.65
2022-10-08T01:20:44.109Z,7.18
2022-10-08T01:23:42.345Z,9.05
2022-10-08T01:26:23.612Z,2.83
2022-10-08T01:29:12.902Z,6.53
2022-10-08T01:31:47.305Z,4.53
2022-10-08T01:34:28.986Z,4.00
2022-10-08T01:36:58.560Z,4.38
2022-10-08T01:41:56.697Z,5.60
2022-10-08T01:44:28.210Z,8.20
2022-10-08T01:46:59.269Z,5.50
2022-10-08T01:49:31.528Z,8.40
2022-10-08T01:52:04.938Z,6.82
2022-10-08T01:54:34.336Z,7.53
2022-10-08T01:57:05.754Z,5.32
2022-10-08T01:59:42.770Z,6.57
2022-10-08T02:02:19.502Z,9.30
2022-10-08T02:04:47.482Z,9.98
2022-10-08T02:07:24.054Z,5.25
2022-10-08T02:09:53.841Z,5.82
2022-10-08T02:12:22.998Z,5.75
2022-10-08T02:14:53.995Z,7.25
2022-10-08T02:18:07.722Z,7.78
2022-10-08T02:20:47.522Z,5.90
2022-10-08T02:23:32.434Z,4.68
2022-10-08T02:26:00.553Z,8.00
2022-10-08T02:28:43.317Z,8.40
2022-10-08T02:31:19.556Z,4.75
2022-10-08T02:33:55.573Z,8.45
2022-10-08T02:36:28.374Z,4.88
2022-10-08T02:38:59.270Z,7.07
2022-10-08T02:41:33.272Z,10.70
2022-10-08T02:44:06.445Z,9.80
2022-10-08T02:46:37.878Z,6.80
2022-10-08T02:49:10.087Z,6.53
2022-10-08T02:51:41.703Z,7.93
2022-10-08T02:54:09.133Z,8.43
2022-10-08T02:56:48.810Z,4.32
2022-10-08T02:59:19.183Z,8.65
2022-10-08T03:01:50.628Z,5.65
2022-10-08T03:04:26.199Z,11.05
2022-10-08T03:06:55.060Z,5.88
2022-10-08T03:09:25.387Z,4.63
2022-10-08T03:11:54.855Z,6.35
2022-10-08T03:14:24.139Z,7.80
2022-10-08T03:16:51.248Z,12.07
2022-10-08T03:19:18.713Z,5.00
2022-10-08T03:21:48.222Z,6.03
2022-10-08T03:24:15.917Z,6.43
2022-10-08T03:26:43.249Z,5.78
2022-10-08T03:29:11.076Z,11.02
2022-10-08T03:31:38.149Z,4.57
2022-10-08T03:34:05.733Z,5.93
2022-10-08T03:36:32.783Z,12.60
2022-10-08T03:38:59.861Z,6.28
2022-10-08T03:41:27.059Z,12.10
2022-10-08T03:43:54.204Z,10.20
2022-10-08T03:46:21.377Z,6.47
2022-10-08T03:48:49.945Z,6.80
2022-10-08T03:51:18.474Z,7.93
2022-10-08T03:53:46.078Z,13.07
2022-10-08T03:56:19.144Z,6.03
2022-10-08T03:58:47.330Z,6.63
2022-10-08T04:01:16.927Z,9.02
2022-10-08T04:03:45.395Z,10.07
2022-10-08T04:06:12.586Z,7.30
2022-10-08T04:08:40.128Z,4.50
2022-10-08T04:11:10.326Z,11.70
2022-10-08T04:13:38.393Z,6.60
2022-10-08T04:16:08.493Z,10.02
2022-10-08T04:18:35.762Z,8.82
2022-10-08T04:21:05.945Z,7.63
2022-10-08T04:23:34.970Z,6.25
2022-10-08T04:26:02.213Z,10.27
2022-10-08T04:28:29.688Z,9.43
2022-10-08T04:31:02.689Z,5.82
2022-10-08T04:33:31.577Z,8.98
2022-10-08T04:36:00.351Z,8.23
2022-10-08T04:38:28.782Z,6.43
2022-10-08T04:41:16.322Z,9.07
2022-10-08T04:43:44.583Z,8.05
2022-10-08T04:46:14.211Z,12.88
2022-10-08T04:48:46.641Z,10.05
2022-10-08T04:51:14.430Z,7.50
2022-10-08T04:53:41.549Z,11.65
2022-10-08T04:56:18.367Z,10.70
2022-10-08T04:58:45.605Z,5.82
2022-10-08T05:01:15.228Z,6.10
2022-10-08T05:03:45.714Z,9.80
2022-10-08T05:06:14.877Z,15.15
2022-10-08T05:08:42.451Z,8.00
2022-10-08T05:11:09.806Z,8.35
2022-10-08T05:13:36.931Z,6.07
2022-10-08T05:16:06.257Z,8.88
2022-10-08T05:18:34.349Z,9.40
2022-10-08T05:21:22.422Z,12.80
2022-10-08T05:23:55.346Z,9.05
2022-10-08T05:26:41.581Z,15.70
2022-10-08T05:29:12.582Z,7.32
2022-10-08T05:31:39.719Z,9.30
2022-10-08T05:34:06.824Z,12.70
2022-10-08T05:36:34.543Z,7.15
2022-10-08T05:39:05.138Z,5.70
2022-10-08T05:41:34.924Z,10.00
2022-10-08T05:44:02.097Z,9.70
2022-10-08T05:46:31.376Z,6.32
2022-10-08T05:49:01.613Z,10.43
2022-10-08T05:51:29.751Z,10.10
2022-10-08T05:53:59.379Z,9.38
2022-10-08T05:56:27.497Z,13.93
2022-10-08T05:58:54.553Z,7.65
2022-10-08T06:01:28.017Z,7.63
2022-10-08T06:04:04.364Z,10.57
2022-10-08T06:06:39.364Z,14.82
2022-10-08T06:09:08.162Z,7.10
2022-10-08T06:11:36.869Z,5.30
2022-10-08T06:14:06.971Z,10.57
2022-10-08T06:16:35.160Z,5.68
2022-10-08T06:19:03.774Z,11.75
2022-10-08T06:21:31.948Z,9.60
2022-10-08T06:24:01.202Z,8.55
2022-10-08T06:26:35.402Z,5.47
2022-10-08T06:29:10.454Z,11.88
2022-10-08T06:31:37.622Z,11.93
2022-10-08T06:34:05.344Z,7.75
2022-10-08T06:36:33.681Z,4.90
2022-10-08T06:39:03.973Z,7.97
2022-10-08T06:41:33.177Z,8.27
2022-10-08T06:44:01.252Z,12.45
2022-10-08T06:46:31.160Z,6.75
2022-10-08T06:48:59.093Z,6.15
2022-10-08T06:51:26.653Z,6.75
2022-10-08T06:53:57.002Z,10.30
2022-10-08T06:56:25.021Z,11.55
2022-10-08T06:58:52.721Z,7.20
2022-10-08T07:01:33.732Z,10.60
2022-10-08T07:04:02.223Z,9.77
2022-10-08T07:06:29.849Z,4.63
2022-10-08T07:08:59.152Z,7.00
2022-10-08T07:11:27.638Z,41.58
2022-10-08T07:13:55.928Z,12.43
2022-10-08T07:16:25.542Z,35.05
2022-10-08T07:18:55.066Z,33.03
2022-10-08T07:21:22.736Z,28.45
2022-10-08T07:23:50.679Z,30.38
2022-10-08T07:26:19.836Z,7.70
2022-10-08T07:29:02.460Z,11.70
2022-10-08T07:31:35.396Z,12.65
2022-10-08T07:34:05.839Z,12.65
2022-10-08T07:36:33.397Z,10.73
2022-10-08T07:39:18.987Z,7.72
2022-10-08T07:41:46.691Z,12.23
2022-10-08T07:44:14.915Z,11.57
2022-10-08T07:46:48.435Z,13.57
2022-10-08T07:49:19.202Z,15.52
2022-10-08T07:51:47.101Z,13.95
2022-10-08T07:54:16.805Z,7.88
2022-10-08T07:56:44.885Z,11.40
2022-10-08T07:59:15.063Z,12.07
2022-10-08T08:01:43.011Z,4.40
2022-10-08T08:04:11.193Z,17.95
2022-10-08T08:06:44.493Z,8.77
2022-10-08T08:09:12.099Z,12.73
2022-10-08T08:11:40.156Z,11.88
2022-10-08T08:14:08.014Z,14.40
2022-10-08T08:16:35.183Z,12.05
2022-10-08T08:19:03.067Z,18.45
2022-10-08T08:21:35.684Z,14.80
2022-10-08T08:24:06.075Z,51.80
2022-10-08T08:26:35.973Z,34.33
2022-10-08T08:29:06.831Z,15.52
2022-10-08T08:31:36.671Z,11.13
2022-10-08T08:34:07.063Z,16.05
2022-10-08T08:36:37.173Z,11.35
2022-10-08T08:39:05.300Z,4.07
2022-10-08T08:42:02.769Z,11.60
2022-10-08T08:45:18.869Z,9.52
2022-10-08T08:48:26.263Z,10.88
2022-10-08T08:50:58.595Z,13.98
2022-10-08T08:53:26.306Z,8.00
2022-10-08T08:55:57.935Z,11.20
2022-10-08T08:58:43.158Z,8.63
2022-10-08T09:01:10.246Z,16.48
2022-10-08T09:03:43.381Z,13.85
2022-10-08T09:06:14.433Z,8.85
2022-10-08T09:08:56.237Z,11.80
2022-10-08T09:11:26.995Z,13.50
2022-10-08T09:14:00.458Z,16.23
2022-10-08T09:16:28.141Z,11.75
2022-10-08T09:18:55.606Z,11.60
2022-10-08T09:21:24.857Z,8.82
2022-10-08T09:23:51.898Z,9.95
2022-10-08T09:26:23.359Z,11.05
2022-10-08T09:28:54.128Z,14.13
2022-10-08T09:31:24.167Z,12.43
2022-10-08T09:34:17.438Z,10.90
2022-10-08T09:36:46.474Z,10.23
2022-10-08T09:39:29.433Z,17.23
2022-10-08T09:42:09.271Z,12.15
2022-10-08T09:44:45.714Z,18.60
2022-10-08T09:47:24.071Z,7.38
2022-10-08T09:50:15.923Z,8.10
2022-10-08T09:52:43.108Z,17.50
2022-10-08T09:55:19.984Z,5.88
2022-10-08T09:57:51.153Z,13.43
2022-10-08T10:00:31.994Z,8.73
2022-10-08T10:03:00.370Z,12.02
2022-10-08T10:05:30.907Z,9.27
2022-10-08T10:07:58.045Z,8.48
2022-10-08T10:10:35.580Z,8.43
2022-10-08T10:13:11.730Z,11.00
2022-10-08T10:15:44.462Z,10.90
2022-10-08T10:18:18.390Z,8.20
2022-10-08T10:20:53.367Z,6.65
2022-10-08T10:23:34.020Z,10.93
2022-10-08T10:26:08.912Z,10.38
2022-10-08T10:28:44.286Z,15.27
2022-10-08T10:31:19.402Z,10.88
2022-10-08T10:33:52.439Z,7.75
2022-10-08T10:36:22.035Z,9.85
2022-10-08T10:38:56.448Z,10.82
2022-10-08T10:41:52.253Z,12.85
2022-10-08T10:44:26.621Z,6.95
2022-10-08T10:46:57.860Z,11.35
2022-10-08T10:49:33.820Z,10.13
2022-10-08T10:52:41.994Z,9.38
2022-10-08T10:55:35.517Z,10.90
2022-10-08T10:58:20.456Z,11.10
2022-10-08T11:01:09.320Z,12.85
2022-10-08T11:04:10.127Z,12.05
2022-10-08T11:06:52.265Z,9.63
2022-10-08T11:09:41.223Z,6.10
2022-10-08T11:12:48.668Z,12.50
2022-10-08T11:15:37.189Z,14.82
2022-10-08T11:18:48.863Z,8.20
2022-10-08T11:21:36.131Z,9.43
2022-10-08T11:24:34.395Z,18.27
2022-10-08T11:27:15.584Z,11.70
2022-10-08T11:30:14.062Z,11.60
2022-10-08T11:32:43.710Z,10.60
2022-10-08T11:35:22.898Z,11.68
2022-10-08T11:38:01.243Z,5.90
2022-10-08T11:40:43.284Z,11.25
2022-10-08T11:43:16.758Z,11.60
2022-10-08T11:45:46.046Z,9.85
2022-10-08T11:48:33.722Z,7.78
2022-10-08T11:51:18.812Z,8.70
2022-10-08T11:54:07.826Z,9.55
2022-10-08T11:56:38.533Z,12.13
2022-10-08T11:59:18.641Z,11.65
2022-10-08T12:01:51.214Z,9.18
2022-10-08T12:04:28.553Z,26.30
2022-10-08T12:07:17.197Z,18.52
2022-10-08T12:10:03.296Z,6.67
2022-10-08T12:12:48.991Z,13.90
2022-10-08T12:15:25.047Z,19.45
2022-10-08T12:17:54.691Z,11.05
2022-10-08T12:20:25.347Z,8.18
2022-10-08T12:23:12.068Z,8.25
2022-10-08T12:26:04.773Z,7.63
2022-10-08T12:28:37.900Z,9.63
2022-10-08T12:31:20.371Z,5.80
2022-10-08T12:34:19.584Z,9.05
2022-10-08T12:37:01.994Z,9.60
2022-10-08T12:39:41.035Z,6.43
2022-10-08T12:42:19.988Z,5.43
2022-10-08T12:44:56.771Z,9.38
2022-10-08T12:47:23.814Z,5.05
2022-10-08T12:49:59.788Z,4.93
2022-10-08T12:52:26.950Z,7.85
2022-10-08T12:54:56.566Z,7.80
2022-10-08T12:57:30.083Z,8.18
2022-10-08T13:00:05.980Z,9.55
2022-10-08T13:02:41.052Z,11.35
2022-10-08T13:05:29.712Z,10.63
2022-10-08T13:07:57.572Z,7.43
2022-10-08T13:10:29.448Z,9.77
2022-10-08T13:13:26.255Z,10.82
2022-10-08T13:16:00.771Z,5.70
2022-10-08T13:18:31.873Z,10.23
2022-10-08T13:21:03.048Z,11.38
2022-10-08T13:23:44.775Z,5.72
2022-10-08T13:26:38.027Z,8.18
2022-10-08T13:29:23.806Z,7.45
2022-10-08T13:31:52.873Z,5.57
2022-10-08T13:34:20.208Z,13.90
2022-10-08T13:36:53.701Z,15.13
2022-10-08T13:39:27.535Z,12.75
2022-10-08T13:42:00.671Z,5.75
2022-10-08T13:44:28.534Z,4.80
2022-10-08T13:46:58.953Z,3.90
2022-10-08T13:49:29.487Z,10.38
2022-10-08T13:51:58.625Z,7.47
2022-10-08T13:54:28.519Z,3.97
2022-10-08T13:56:55.857Z,4.53
2022-10-08T13:59:26.988Z,4.43
2022-10-08T14:01:56.920Z,7.03
2022-10-08T14:04:24.124Z,5.60
2022-10-08T14:06:54.699Z,22.98
2022-10-08T14:09:24.871Z,6.53
2022-10-08T14:11:56.825Z,7.05
2022-10-08T14:14:27.589Z,8.43
2022-10-08T14:16:54.691Z,8.68
2022-10-08T14:19:21.972Z,5.07
2022-10-08T14:21:52.027Z,4.35
2022-10-08T14:24:19.112Z,5.43
2022-10-08T14:26:46.214Z,4.25
2022-10-08T14:29:13.304Z,3.83
2022-10-08T14:31:40.468Z,6.47
2022-10-08T14:34:07.588Z,4.28
2022-10-08T14:36:37.556Z,2.85
2022-10-08T14:39:05.356Z,5.60
2022-10-08T14:41:33.247Z,3.30
2022-10-08T14:44:00.289Z,10.90
2022-10-08T14:46:27.371Z,6.88
2022-10-08T14:48:54.450Z,9.77
2022-10-08T14:51:21.499Z,5.90
2022-10-08T14:53:50.157Z,4.40
2022-10-08T14:56:17.291Z,4.05
2022-10-08T14:58:44.347Z,10.75
2022-10-08T15:01:11.458Z,4.07
2022-10-08T15:03:38.592Z,6.28
2022-10-08T15:06:05.876Z,8.80
2022-10-08T15:08:33.613Z,26.50
2022-10-08T15:11:04.195Z,7.85
2022-10-08T15:13:31.312Z,7.80
2022-10-08T15:15:58.840Z,4.63
2022-10-08T15:18:30.119Z,3.35
2022-10-08T15:20:59.821Z,6.07
2022-10-08T15:23:27.424Z,7.18
2022-10-08T15:26:03.426Z,9.13
2022-10-08T15:28:30.642Z,3.55
2022-10-08T15:31:15.989Z,6.40
2022-10-08T15:33:45.234Z,5.13
2022-10-08T15:36:37.004Z,6.22
2022-10-08T15:39:13.387Z,9.80
2022-10-08T15:41:47.026Z,6.32
2022-10-08T15:44:27.641Z,7.80
2022-10-08T15:47:01.943Z,12.07
2022-10-08T15:49:41.896Z,8.13
2022-10-08T15:52:19.274Z,10.38
2022-10-08T15:54:46.954Z,7.57
2022-10-08T15:57:15.775Z,6.60
2022-10-08T15:59:42.898Z,8.90
2022-10-08T16:02:16.915Z,7.85
2022-10-08T16:04:46.812Z,7.75
2022-10-08T16:07:14.129Z,8.48
2022-10-08T16:09:41.171Z,5.05
2022-10-08T16:12:08.258Z,6.93
2022-10-08T16:14:35.426Z,5.10
2022-10-08T16:17:02.917Z,10.40
2022-10-08T16:19:30.137Z,3.65
2022-10-08T16:21:58.377Z,6.75
2022-10-08T16:24:25.723Z,6.97
2022-10-08T16:26:52.810Z,5.90
2022-10-08T16:29:19.932Z,10.48
2022-10-08T16:31:47.731Z,6.53
2022-10-08T16:34:18.191Z,7.50
2022-10-08T16:36:48.649Z,17.65
2022-10-08T16:39:19.097Z,14.48
2022-10-08T16:41:47.160Z,14.65
2022-10-08T16:44:16.550Z,22.05
2022-10-08T16:49:25.400Z,12.93
2022-10-08T16:51:59.201Z,13.35
2022-10-08T16:54:27.426Z,38.65
2022-10-08T16:56:54.620Z,19.13
2022-10-08T16:59:24.407Z,9.90
2022-10-08T17:01:54.559Z,6.47
2022-10-08T17:04:23.534Z,8.07
2022-10-08T17:06:50.702Z,12.80
2022-10-08T17:09:18.078Z,7.30
2022-10-08T17:11:45.201Z,12.60
2022-10-08T17:14:12.615Z,12.88
2022-10-08T17:16:40.183Z,19.85
2022-10-08T17:19:07.310Z,18.77
2022-10-08T17:21:34.894Z,16.27
2022-10-08T17:24:03.144Z,16.33
2022-10-08T17:26:30.951Z,9.38
2022-10-08T17:29:03.574Z,10.55
2022-10-08T17:31:31.702Z,53.55
2022-10-08T17:34:00.293Z,30.42
2022-10-08T17:36:30.091Z,27.10
2022-10-08T17:38:59.383Z,20.33
2022-10-08T17:41:29.097Z,19.38
2022-10-08T17:43:58.999Z,21.40
2022-10-08T17:46:32.352Z,23.60
2022-10-08T17:48:59.893Z,20.77
2022-10-08T17:51:29.682Z,16.63
2022-10-08T17:54:00.478Z,14.60
2022-10-08T17:56:28.811Z,19.13
2022-10-08T17:58:56.385Z,55.92
2022-10-08T18:01:32.292Z,104.70
2022-10-08T18:04:01.588Z,53.22
2022-10-08T18:06:29.894Z,46.10
2022-10-08T18:08:59.245Z,42.75
2022-10-08T18:11:28.195Z,35.50
2022-10-08T18:13:55.363Z,19.90
2022-10-08T18:16:22.998Z,17.13
2022-10-08T18:18:50.130Z,10.60
2022-10-08T18:21:18.876Z,14.10
2022-10-08T18:23:46.714Z,20.55
2022-10-08T18:26:24.363Z,20.20
2022-10-08T18:28:54.494Z,18.13
2022-10-08T18:31:25.082Z,18.73
2022-10-08T18:33:58.157Z,17.27
2022-10-08T18:36:28.075Z,8.95
2022-10-08T18:39:00.625Z,8.02
2022-10-08T18:41:36.736Z,10.18
2022-10-08T18:44:05.833Z,8.25
2022-10-08T18:46:36.976Z,11.70
2022-10-08T18:49:05.265Z,8.05
2022-10-08T18:51:32.931Z,9.25
2022-10-08T18:54:02.244Z,9.23
2022-10-08T18:56:31.585Z,10.20
2022-10-08T18:59:01.758Z,16.38
2022-10-08T19:01:34.518Z,7.95
2022-10-08T19:04:04.227Z,8.15
2022-10-08T19:06:36.646Z,7.43
2022-10-08T19:09:07.446Z,6.57
2022-10-08T19:11:44.354Z,6.68
2022-10-08T19:14:14.189Z,6.90
2022-10-08T19:16:41.971Z,6.85
2022-10-08T19:19:13.894Z,4.38
2022-10-08T19:21:41.502Z,3.42
2022-10-08T19:24:13.473Z,9.60
2022-10-08T19:26:40.638Z,6.72
2022-10-08T19:29:13.128Z,8.43
2022-10-08T19:31:40.188Z,11.02
2022-10-08T19:34:08.005Z,9.35
2022-10-08T19:36:37.359Z,6.68
2022-10-08T19:39:12.884Z,6.78
2022-10-08T19:41:40.800Z,7.53
2022-10-08T19:44:08.619Z,12.00
2022-10-08T19:46:35.824Z,6.95
2022-10-08T19:49:05.520Z,12.18
2022-10-08T19:51:33.225Z,9.38
2022-10-08T19:54:01.069Z,7.85
2022-10-08T19:56:29.157Z,5.57
2022-10-08T19:58:57.132Z,5.75
2022-10-08T20:01:33.643Z,4.82
2022-10-08T20:04:02.894Z,4.78
2022-10-08T20:06:31.972Z,8.73
2022-10-08T20:09:01.710Z,5.20
2022-10-08T20:11:31.075Z,5.97
2022-10-08T20:13:59.988Z,5.72
2022-10-08T20:16:32.852Z,7.65
2022-10-08T20:19:12.507Z,4.45
2022-10-08T20:21:39.717Z,4.65
2022-10-08T20:24:07.035Z,8.07
2022-10-08T20:26:36.304Z,7.50
2022-10-08T20:29:09.824Z,5.05
2022-10-08T20:31:46.788Z,3.78
2022-10-08T20:34:31.109Z,5.43
2022-10-08T20:37:01.142Z,5.22
2022-10-08T20:39:28.778Z,8.65
2022-10-08T20:41:56.380Z,4.68
2022-10-08T20:44:23.469Z,3.22
2022-10-08T20:46:51.713Z,4.40
2022-10-08T20:49:19.552Z,7.05
2022-10-08T20:51:46.717Z,4.80
2022-10-08T20:54:17.153Z,3.42
2022-10-08T20:56:44.782Z,8.05
2022-10-08T20:59:16.401Z,5.10
2022-10-08T21:01:44.146Z,4.60
2022-10-08T21:04:11.246Z,3.20
2022-10-08T21:06:41.663Z,2.17
2022-10-08T21:09:09.291Z,10.05
2022-10-08T21:11:37.112Z,8.45
2022-10-08T21:14:05.435Z,2.97
2022-10-08T21:16:34.941Z,1.80
2022-10-08T21:19:04.545Z,4.15
2022-10-08T21:24:00.617Z,4.70
2022-10-08T21:26:29.279Z,3.28
2022-10-08T21:28:58.774Z,2.50
2022-10-08T21:33:54.466Z,11.13
2022-10-08T21:36:27.112Z,5.07
2022-10-08T21:38:55.108Z,6.35
2022-10-08T21:41:24.110Z,5.28
2022-10-08T21:43:58.423Z,7.07
2022-10-08T21:46:28.598Z,3.97
2022-10-08T21:49:01.390Z,5.47
2022-10-08T21:51:29.891Z,5.03
2022-10-08T21:54:00.156Z,7.45
2022-10-08T21:56:30.073Z,7.15
2022-10-08T21:58:59.336Z,4.50
2022-10-08T22:01:29.404Z,8.68
2022-10-08T22:03:59.591Z,4.57
2022-10-08T22:06:28.501Z,4.07
2022-10-08T22:08:56.996Z,3.47
2022-10-08T22:11:24.495Z,6.72
2022-10-08T22:13:51.847Z,4.25
2022-10-08T22:16:20.849Z,6.43
2022-10-08T22:18:48.293Z,6.82
2022-10-08T22:21:18.801Z,4.75
2022-10-08T22:23:46.657Z,6.93
2022-10-08T22:26:22.732Z,3.05
2022-10-08T22:28:50.341Z,3.67
2022-10-08T22:31:19.101Z,5.00
2022-10-08T22:33:46.686Z,3.43
2022-10-08T22:36:21.309Z,4.25
2022-10-08T22:38:49.386Z,7.82
2022-10-08T22:41:19.751Z,3.28
2022-10-08T22:43:47.084Z,3.25
2022-10-08T22:46:22.634Z,6.28
2022-10-08T22:48:49.873Z,4.93
2022-10-08T22:51:21.773Z,5.80
2022-10-08T22:53:49.055Z,4.30
2022-10-08T22:56:22.165Z,4.03
2022-10-08T22:58:50.162Z,5.43
2022-10-08T23:01:19.870Z,3.95
2022-10-08T23:03:47.823Z,2.80
2022-10-08T23:06:16.714Z,5.85
2022-10-08T23:08:45.234Z,2.35
2022-10-08T23:11:12.799Z,3.10
2022-10-08T23:13:40.065Z,5.22
2022-10-08T23:16:07.147Z,4.97
2022-10-08T23:18:36.432Z,2.80
2022-10-08T23:21:06.611Z,4.80
2022-10-08T23:23:34.985Z,2.00
2022-10-08T23:26:05.200Z,4.63
2022-10-08T23:28:34.330Z,2.30
2022-10-08T23:31:09.520Z,3.53
2022-10-08T23:33:38.335Z,5.88
2022-10-08T23:36:07.722Z,7.20
2022-10-08T23:38:35.703Z,4.70
2022-10-08T23:41:04.888Z,2.95
2022-10-08T23:43:37.048Z,4.82
2022-10-08T23:46:05.405Z,6.78
2022-10-08T23:48:32.840Z,8.25
2022-10-08T23:51:00.790Z,4.10
2022-10-08T23:53:28.640Z,5.03
2022-10-08T23:55:55.961Z,2.85
2022-10-08T23:58:23.103Z,6.22
